Time;durP1;ratioP1;P1;durP2;ratioP2;P2;SDS_P1;SDS_P2;PMS_P1;PMS_P2;Temp;Humidity;BMP_temperature;BMP_pressure;BME280_temperature;BME280_humidity;BME280_pressure;Samples;Min_cycle;Max_cycle;Signal;HPM_P1;HPM_P2
2021/03/10 00:01:43;;;;;;;3.38;1.45;;;17.40;40.00;;;;;;4847369;29;20241;-83
2021/03/10 00:04:10;;;;;;;2.00;1.40;;;17.40;40.00;;;;;;4849437;29;20174;-81
2021/03/10 00:06:36;;;;;;;2.47;1.40;;;17.30;40.00;;;;;;4848741;29;20161;-83
2021/03/10 00:09:11;;;;;;;1.50;1.40;;;17.30;40.00;;;;;;4865166;29;20161;-80
2021/03/10 00:11:38;;;;;;;1.30;1.20;;;17.30;40.00;;;;;;4848693;29;20192;-83
2021/03/10 00:14:05;;;;;;;1.92;1.40;;;17.40;40.00;;;;;;4864998;29;20202;-82
2021/03/10 00:16:30;;;;;;;2.15;1.55;;;17.30;40.00;;;;;;4833241;29;20229;-81
2021/03/10 00:18:57;;;;;;;2.55;1.70;;;17.30;40.00;;;;;;4832877;29;20172;-82
2021/03/10 00:21:31;;;;;;;2.15;1.70;;;17.30;40.10;;;;;;4848670;29;20164;-83
2021/03/10 00:23:58;;;;;;;2.03;1.52;;;17.30;40.00;;;;;;4865005;29;20168;-83
2021/03/10 00:26:24;;;;;;;2.60;1.50;;;17.30;40.00;;;;;;4865368;29;20696;-81
2021/03/10 00:28:50;;;;;;;1.85;1.50;;;17.30;40.00;;;;;;4864733;29;20204;-81
2021/03/10 00:31:16;;;;;;;1.63;1.50;;;17.30;40.00;;;;;;4848725;29;20216;-80
2021/03/10 00:33:42;;;;;;;3.85;1.45;;;17.30;40.00;;;;;;4833775;29;20187;-82
2021/03/10 00:36:09;;;;;;;2.15;1.77;;;17.30;40.10;;;;;;4833701;29;20161;-80
2021/03/10 00:38:35;;;;;;;2.35;1.75;;;17.30;40.00;;;;;;4833627;29;20168;-82
2021/03/10 00:41:01;;;;;;;2.58;1.55;;;17.30;40.10;;;;;;4833140;29;20177;-81
2021/03/10 00:43:35;;;;;;;1.75;1.58;;;17.20;40.10;;;;;;4848600;29;20169;-82
2021/03/10 00:46:02;;;;;;;1.95;1.67;;;17.30;40.00;;;;;;4848545;29;20167;-82
2021/03/10 00:48:28;;;;;;;1.88;1.40;;;17.30;40.10;;;;;;4848235;29;20624;-83
2021/03/10 00:50:55;;;;;;;2.25;1.67;;;17.30;40.10;;;;;;4832423;29;20205;-81
2021/03/10 00:53:21;;;;;;;3.40;1.77;;;17.30;40.10;;;;;;4833005;29;20169;-83
2021/03/10 00:55:48;;;;;;;2.15;1.40;;;17.20;40.20;;;;;;4847862;29;20173;-82
2021/03/10 00:58:15;;;;;;;1.73;1.50;;;17.20;40.20;;;;;;4847459;29;20169;-81
2021/03/10 01:00:41;;;;;;;2.97;1.70;;;17.20;40.30;;;;;;4832604;29;20177;-80
2021/03/10 01:03:06;;;;;;;2.45;1.45;;;17.20;40.20;;;;;;4832793;29;20163;-80
2021/03/10 01:05:32;;;;;;;2.30;1.55;;;17.20;40.10;;;;;;4847536;29;20177;-82
2021/03/10 01:07:59;;;;;;;2.20;1.58;;;17.20;40.00;;;;;;4864213;29;20654;-81
2021/03/10 01:10:25;;;;;;;1.75;1.50;;;17.20;40.10;;;;;;4847698;29;20247;-81
2021/03/10 01:12:52;;;;;;;4.65;1.73;;;17.20;40.30;;;;;;4847423;29;20236;-80
2021/03/10 01:15:19;;;;;;;2.92;1.52;;;17.20;40.30;;;;;;4863857;29;20179;-84
2021/03/10 01:17:47;;;;;;;1.77;1.48;;;17.20;40.20;;;;;;4832213;29;20231;-80
2021/03/10 01:20:16;;;;;;;2.50;1.50;;;17.20;40.30;;;;;;4832402;29;20528;-81
2021/03/10 01:22:42;;;;;;;1.67;1.50;;;17.20;40.20;;;;;;4817169;29;20181;-83
2021/03/10 01:25:08;;;;;;;1.88;1.50;;;17.20;40.30;;;;;;4832362;29;20198;-80
2021/03/10 01:27:35;;;;;;;1.92;1.70;;;17.20;40.20;;;;;;4832819;29;20173;-80
2021/03/10 01:30:12;;;;;;;2.22;1.95;;;17.20;40.30;;;;;;4831960;29;20212;-83
2021/03/10 01:32:37;;;;;;;2.15;1.63;;;17.20;40.40;;;;;;4847075;29;20169;-82
2021/03/10 01:35:04;;;;;;;1.90;1.70;;;17.20;40.40;;;;;;4817290;29;20548;-82
2021/03/10 01:37:29;;;;;;;2.95;1.85;;;17.10;40.30;;;;;;4832442;29;20245;-80
2021/03/10 01:39:55;;;;;;;1.63;1.35;;;17.20;40.30;;;;;;4847388;29;20325;-80
2021/03/10 01:42:25;;;;;;;1.83;1.50;;;17.20;40.30;;;;;;4847799;29;20181;-81
2021/03/10 01:44:51;;;;;;;2.90;1.80;;;17.20;40.20;;;;;;4816953;29;20632;-83
2021/03/10 01:47:17;;;;;;;1.83;1.48;;;17.20;40.30;;;;;;4847891;29;20260;-81
2021/03/10 01:49:43;;;;;;;2.95;1.80;;;17.20;40.20;;;;;;4832119;29;20567;-80
2021/03/10 01:52:09;;;;;;;2.45;1.85;;;17.20;40.30;;;;;;4816842;29;20176;-82
2021/03/10 01:54:38;;;;;;;2.13;1.73;;;17.10;40.20;;;;;;4816935;29;20177;-83
2021/03/10 01:57:04;;;;;;;1.95;1.73;;;17.20;40.40;;;;;;4817107;29;20183;-84
2021/03/10 01:59:29;;;;;;;1.50;1.40;;;17.20;40.10;;;;;;4832023;29;20220;-81
2021/03/10 02:01:55;;;;;;;2.05;1.60;;;17.20;40.30;;;;;;4846969;29;20253;-83
2021/03/10 02:04:21;;;;;;;1.83;1.73;;;17.20;40.10;;;;;;4831404;29;20655;-80
2021/03/10 02:07:09;;;;;;;1.75;1.60;;;17.20;40.20;;;;;;4832170;29;20688;-83
2021/03/10 02:10:09;;;;;;;2.28;1.90;;;17.20;40.20;;;;;;4846635;29;20616;-82
2021/03/10 02:12:55;;;;;;;2.47;1.70;;;17.20;40.10;;;;;;4863292;29;20529;-82
2021/03/10 02:15:56;;;;;;;2.38;1.73;;;17.20;40.20;;;;;;4863466;29;20188;-82
2021/03/10 02:18:46;;;;;;;2.13;1.60;;;17.20;40.20;;;;;;4863285;29;20593;-81
2021/03/10 02:21:42;;;;;;;2.28;1.70;;;17.20;40.20;;;;;;4817591;29;20176;-83
2021/03/10 02:24:29;;;;;;;2.58;1.58;;;17.20;40.20;;;;;;4847442;29;20161;-83
2021/03/10 02:27:34;;;;;;;3.15;1.80;;;17.10;40.20;;;;;;4847275;29;20609;-82
2021/03/10 02:30:08;;;;;;;1.75;1.65;;;17.10;40.30;;;;;;4808762;29;20380;-83
2021/03/10 02:32:35;;;;;;;2.00;1.60;;;17.20;40.10;;;;;;4794183;29;20249;-81
2021/03/10 02:35:03;;;;;;;2.47;1.60;;;17.20;40.80;;;;;;4794819;29;20193;-81
2021/03/10 02:37:30;;;;;;;2.85;1.60;;;17.20;40.00;;;;;;4794731;29;20283;-82
2021/03/10 02:39:55;;;;;;;2.85;1.80;;;17.20;40.10;;;;;;4824701;29;20170;-80
2021/03/10 02:42:22;;;;;;;1.88;1.67;;;17.10;40.40;;;;;;4794121;29;20577;-81
2021/03/10 02:44:49;;;;;;;2.22;1.75;;;17.20;40.20;;;;;;4794093;29;20174;-81
2021/03/10 02:47:16;;;;;;;1.98;1.50;;;17.20;40.10;;;;;;4793768;29;20635;-82
2021/03/10 02:49:42;;;;;;;2.42;1.58;;;17.20;40.30;;;;;;4808679;29;20170;-82
2021/03/10 02:52:07;;;;;;;3.05;1.70;;;17.10;40.20;;;;;;4809346;29;20504;-80
2021/03/10 02:54:33;;;;;;;1.95;1.40;;;17.10;40.30;;;;;;4809309;29;20265;-81
2021/03/10 02:56:59;;;;;;;2.75;1.60;;;17.10;40.30;;;;;;4794215;29;20655;-80
2021/03/10 02:59:26;;;;;;;2.88;2.05;;;17.10;40.30;;;;;;4809217;29;20166;-80
2021/03/10 03:01:55;;;;;;;1.95;1.55;;;17.10;40.20;;;;;;4824019;29;20630;-83
2021/03/10 03:04:22;;;;;;;2.95;1.83;;;17.10;40.20;;;;;;4808920;29;20171;-83
2021/03/10 03:06:48;;;;;;;2.03;1.60;;;17.10;40.20;;;;;;4823427;29;20196;-82
2021/03/10 03:09:15;;;;;;;2.13;1.70;;;17.10;40.10;;;;;;4862594;29;20240;-80
2021/03/10 03:11:42;;;;;;;1.98;1.77;;;17.10;40.10;;;;;;4862553;29;20188;-81
2021/03/10 03:14:08;;;;;;;2.47;1.70;;;17.10;40.30;;;;;;4831081;29;20299;-83
2021/03/10 03:16:35;;;;;;;2.72;1.83;;;17.10;40.30;;;;;;4845632;29;20224;-80
2021/03/10 03:19:06;;;;;;;1.88;1.65;;;17.10;40.20;;;;;;4862345;29;20179;-83
2021/03/10 03:21:34;;;;;;;1.92;1.52;;;17.10;40.40;;;;;;4830570;29;20180;-81
2021/03/10 03:23:59;;;;;;;2.08;1.85;;;17.10;40.30;;;;;;4830264;29;20165;-82
2021/03/10 03:26:25;;;;;;;2.65;1.73;;;17.10;40.20;;;;;;4830395;29;20640;-82
2021/03/10 03:28:51;;;;;;;1.70;1.52;;;17.10;40.10;;;;;;4830374;29;20637;-82
2021/03/10 03:31:16;;;;;;;1.90;1.80;;;17.10;40.10;;;;;;4861929;29;20245;-83
2021/03/10 03:33:42;;;;;;;2.13;1.60;;;17.10;40.20;;;;;;4830015;29;20597;-80
2021/03/10 03:36:10;;;;;;;1.75;1.65;;;17.10;40.10;;;;;;4846944;29;20172;-80
2021/03/10 03:38:37;;;;;;;2.17;1.85;;;17.10;40.00;;;;;;4833809;29;20255;-81
2021/03/10 03:41:04;;;;;;;2.15;1.65;;;17.10;40.10;;;;;;4834397;29;20605;-81
2021/03/10 03:43:30;;;;;;;1.83;1.50;;;17.10;40.10;;;;;;4848824;29;20169;-82
2021/03/10 03:45:57;;;;;;;2.00;1.80;;;17.10;40.20;;;;;;4848914;29;20165;-82
2021/03/10 03:48:23;;;;;;;2.50;1.73;;;17.10;40.20;;;;;;4865237;29;20200;-81
2021/03/10 03:50:50;;;;;;;2.08;1.88;;;17.10;40.20;;;;;;4833302;29;20261;-80
2021/03/10 03:53:16;;;;;;;2.33;1.95;;;17.10;40.10;;;;;;4849015;29;20616;-82
2021/03/10 03:55:42;;;;;;;2.65;1.60;;;17.10;40.10;;;;;;4833728;29;20161;-81
2021/03/10 03:58:08;;;;;;;1.80;1.63;;;17.10;40.10;;;;;;4833468;29;20168;-82
2021/03/10 04:00:35;;;;;;;4.15;1.67;;;17.10;40.20;;;;;;4848806;29;20172;-80
2021/03/10 04:03:03;;;;;;;2.15;1.95;;;17.10;40.10;;;;;;4818186;29;20177;-84
2021/03/10 04:05:29;;;;;;;1.83;1.70;;;17.10;40.10;;;;;;4849155;29;20173;-82
2021/03/10 04:07:59;;;;;;;2.17;1.80;;;17.10;40.00;;;;;;4832969;29;20221;-82
2021/03/10 04:10:35;;;;;;;3.45;1.90;;;17.10;40.20;;;;;;4848216;29;20275;-83
2021/03/10 04:13:02;;;;;;;2.35;1.70;;;17.10;40.00;;;;;;4848835;29;20160;-81
2021/03/10 04:15:29;;;;;;;1.73;1.48;;;17.10;40.10;;;;;;4833398;29;20177;-81
2021/03/10 04:17:56;;;;;;;3.15;1.90;;;17.10;40.30;;;;;;4832915;29;20225;-80
2021/03/10 04:20:22;;;;;;;2.13;1.80;;;17.10;40.20;;;;;;4848455;29;20169;-81
2021/03/10 04:22:48;;;;;;;2.10;1.70;;;17.10;40.20;;;;;;4818040;29;20259;-81
2021/03/10 04:25:14;;;;;;;2.13;1.50;;;17.00;40.10;;;;;;4818002;29;20267;-83
2021/03/10 04:27:40;;;;;;;2.22;1.90;;;17.00;40.10;;;;;;4833125;29;20209;-80
2021/03/10 04:30:10;;;;;;;1.70;1.60;;;17.10;40.10;;;;;;4832927;29;20258;-80
2021/03/10 04:32:35;;;;;;;2.15;1.80;;;17.10;40.00;;;;;;4832744;29;20252;-80
2021/03/10 04:35:01;;;;;;;2.05;1.70;;;17.10;40.10;;;;;;4817831;29;20608;-83
2021/03/10 04:37:27;;;;;;;2.53;2.25;;;17.10;40.30;;;;;;4848486;29;20259;-82
2021/03/10 04:39:52;;;;;;;2.00;1.73;;;17.10;40.00;;;;;;4817679;29;20208;-81
2021/03/10 04:42:20;;;;;;;2.00;1.70;;;17.10;40.10;;;;;;4864599;29;20169;-81
2021/03/10 04:44:46;;;;;;;2.50;1.98;;;17.10;40.20;;;;;;4832696;29;20204;-82
2021/03/10 04:47:11;;;;;;;2.00;1.77;;;17.10;40.00;;;;;;4831844;29;20629;-80
2021/03/10 04:49:37;;;;;;;2.30;1.88;;;17.10;40.10;;;;;;4847779;29;20305;-81
2021/03/10 04:52:04;;;;;;;2.55;1.83;;;17.10;39.90;;;;;;4847724;29;20525;-83
2021/03/10 04:54:30;;;;;;;2.72;1.92;;;17.10;40.10;;;;;;4832833;29;20161;-82
2021/03/10 04:56:55;;;;;;;2.25;1.80;;;17.10;40.00;;;;;;4832196;29;20542;-82
2021/03/10 04:59:22;;;;;;;2.00;1.88;;;17.10;40.00;;;;;;4847610;29;20620;-81
2021/03/10 05:01:52;;;;;;;2.15;1.90;;;17.10;40.10;;;;;;4832392;29;20191;-82
2021/03/10 05:04:17;;;;;;;2.22;1.73;;;17.00;39.90;;;;;;4847287;29;20179;-83
2021/03/10 05:06:43;;;;;;;2.42;1.98;;;17.10;39.60;;;;;;4817222;29;20264;-80
2021/03/10 05:09:09;;;;;;;2.10;1.70;;;17.20;39.30;;;;;;4831894;29;20605;-81
2021/03/10 05:11:36;;;;;;;2.22;1.75;;;17.20;39.00;;;;;;4831501;29;20676;-81
2021/03/10 05:14:03;;;;;;;2.67;2.00;;;17.20;39.30;;;;;;4846977;29;20177;-83
2021/03/10 05:16:28;;;;;;;1.92;1.73;;;17.20;39.40;;;;;;4846333;29;20220;-81
2021/03/10 05:19:02;;;;;;;1.90;1.75;;;17.20;39.20;;;;;;4831800;29;20172;-80
2021/03/10 05:21:29;;;;;;;2.38;1.98;;;17.20;39.20;;;;;;4846800;29;20177;-82
2021/03/10 05:23:55;;;;;;;2.10;1.80;;;17.10;39.40;;;;;;4863361;29;20161;-81
2021/03/10 05:26:22;;;;;;;2.10;1.88;;;17.10;39.40;;;;;;4863040;29;20184;-82
2021/03/10 05:28:49;;;;;;;2.17;1.98;;;17.10;39.50;;;;;;4846511;29;20519;-80
2021/03/10 05:31:24;;;;;;;2.55;1.88;;;17.10;39.40;;;;;;4831003;29;20204;-80
2021/03/10 05:33:51;;;;;;;2.33;1.88;;;17.10;39.60;;;;;;4862920;29;20160;-82
2021/03/10 05:36:20;;;;;;;2.38;1.80;;;17.10;39.00;;;;;;4845876;29;20634;-83
2021/03/10 05:38:46;;;;;;;2.20;1.85;;;17.10;39.20;;;;;;4846342;29;20172;-82
2021/03/10 05:41:15;;;;;;;2.50;2.03;;;17.10;39.20;;;;;;4846190;29;20168;-80
2021/03/10 05:43:42;;;;;;;1.63;1.52;;;17.10;39.00;;;;;;4846363;29;20172;-84
2021/03/10 05:46:08;;;;;;;2.38;1.80;;;17.10;39.20;;;;;;4846159;29;20176;-82
2021/03/10 05:48:35;;;;;;;2.08;1.88;;;17.00;39.20;;;;;;4815883;29;20173;-80
2021/03/10 05:51:04;;;;;;;1.90;1.70;;;17.10;39.10;;;;;;4815593;29;20201;-81
2021/03/10 05:53:29;;;;;;;2.03;1.80;;;17.10;39.00;;;;;;4845781;29;20203;-83
2021/03/10 05:55:59;;;;;;;2.08;1.75;;;17.20;38.70;;;;;;4830919;29;20200;-82
2021/03/10 05:58:25;;;;;;;3.03;2.20;;;17.10;38.70;;;;;;4830925;29;20157;-82
2021/03/10 06:00:51;;;;;;;1.95;1.75;;;17.10;38.80;;;;;;4846812;29;20169;-80
2021/03/10 06:03:18;;;;;;;2.28;1.77;;;17.10;38.70;;;;;;4847746;29;20620;-83
2021/03/10 06:05:46;;;;;;;1.88;1.65;;;17.10;38.80;;;;;;4849853;29;20169;-84
2021/03/10 06:08:15;;;;;;;2.58;1.90;;;17.10;38.70;;;;;;4848414;29;20238;-82
2021/03/10 06:10:46;;;;;;;2.70;1.88;;;17.10;38.70;;;;;;4849843;29;20189;-81
2021/03/10 06:13:27;;;;;;;2.05;1.77;;;17.20;38.50;;;;;;4845639;29;20184;-82
2021/03/10 06:15:57;;;;;;;2.97;2.08;;;17.10;38.70;;;;;;4845409;29;20157;-79
2021/03/10 06:18:34;;;;;;;2.28;1.95;;;17.00;38.70;;;;;;4845342;29;20188;-81
2021/03/10 06:21:07;;;;;;;2.50;2.00;;;17.00;38.70;;;;;;4845376;29;20164;-81
2021/03/10 06:23:52;;;;;;;2.35;2.05;;;17.10;38.70;;;;;;4845123;29;20685;-83
2021/03/10 06:26:27;;;;;;;6.22;2.20;;;17.00;38.70;;;;;;4848146;29;20179;-81
2021/03/10 06:28:54;;;;;;;2.72;2.05;;;17.10;38.80;;;;;;4833133;29;20180;-80
2021/03/10 06:31:34;;;;;;;2.85;1.77;;;17.10;38.10;;;;;;4848581;29;20239;-82
2021/03/10 06:34:04;;;;;;;2.45;1.90;;;17.20;38.00;;;;;;4848314;29;20185;-82
2021/03/10 06:36:32;;;;;;;2.13;1.92;;;17.10;38.30;;;;;;4864899;29;20168;-80
2021/03/10 06:38:58;;;;;;;2.25;1.83;;;17.10;38.20;;;;;;4833120;29;20644;-81
2021/03/10 06:41:31;;;;;;;1.75;1.65;;;17.20;38.10;;;;;;4816664;29;20189;-81
2021/03/10 06:43:57;;;;;;;2.28;2.08;;;17.10;38.20;;;;;;4846460;29;20161;-82
2021/03/10 06:46:24;;;;;;;1.98;1.80;;;17.10;37.80;;;;;;4863907;29;20174;-81
2021/03/10 06:49:06;;;;;;;2.05;1.85;;;17.20;37.80;;;;;;4848668;29;20584;-80
2021/03/10 06:51:32;;;;;;;2.38;2.05;;;17.10;37.90;;;;;;4848323;29;20240;-81
2021/03/10 06:53:59;;;;;;;2.42;2.00;;;17.10;38.00;;;;;;4865248;29;20168;-80
2021/03/10 06:56:26;;;;;;;2.30;2.10;;;17.10;38.00;;;;;;4846910;29;20157;-81
2021/03/10 06:59:05;;;;;;;2.67;2.10;;;17.10;37.80;;;;;;4831588;29;20164;-82
2021/03/10 07:01:39;;;;;;;3.03;2.22;;;17.10;37.80;;;;;;4847278;29;20172;-80
2021/03/10 07:04:07;;;;;;;2.00;1.77;;;17.20;37.70;;;;;;4865119;29;20570;-81
2021/03/10 07:06:35;;;;;;;1.83;1.73;;;17.20;37.20;;;;;;4848738;29;20154;-82
2021/03/10 07:09:05;;;;;;;2.08;1.88;;;17.20;37.80;;;;;;4833544;29;20177;-81
2021/03/10 07:11:31;;;;;;;2.50;2.28;;;17.20;37.60;;;;;;4850918;29;20629;-82
2021/03/10 07:13:58;;;;;;;2.47;2.10;;;17.10;37.60;;;;;;4867867;29;20248;-81
2021/03/10 07:16:24;;;;;;;2.10;1.77;;;17.10;37.70;;;;;;4850066;29;20783;-81
2021/03/10 07:18:50;;;;;;;2.13;1.92;;;17.10;37.70;;;;;;4851001;29;20225;-82
2021/03/10 07:21:54;;;;;;;2.15;1.90;;;17.10;37.60;;;;;;4850333;29;20165;-81
2021/03/10 07:24:31;;;;;;;2.92;2.05;;;17.10;37.70;;;;;;4799568;29;20194;-81
2021/03/10 07:26:56;;;;;;;2.17;1.85;;;17.10;37.70;;;;;;4811450;29;20171;-80
2021/03/10 07:29:22;;;;;;;2.20;2.00;;;17.10;37.40;;;;;;4812248;29;20282;-81
2021/03/10 07:31:57;;;;;;;2.30;1.92;;;17.20;37.40;;;;;;4811691;29;20219;-82
2021/03/10 07:34:26;;;;;;;2.10;1.90;;;17.20;37.30;;;;;;4811275;29;20190;-82
2021/03/10 07:36:52;;;;;;;2.35;2.00;;;17.30;36.90;;;;;;4811038;29;20580;-82
2021/03/10 07:39:26;;;;;;;2.22;1.70;;;17.30;37.00;;;;;;4809554;29;20635;-81
2021/03/10 07:41:52;;;;;;;3.17;1.92;;;17.30;37.30;;;;;;4810730;29;20186;-81
2021/03/10 07:44:20;;;;;;;2.28;1.92;;;17.20;37.10;;;;;;4811675;29;20700;-82
2021/03/10 07:46:46;;;;;;;2.42;2.22;;;17.20;37.00;;;;;;4812242;29;20170;-82
2021/03/10 07:49:35;;;;;;;2.85;2.03;;;17.20;36.90;;;;;;4816254;29;20163;-80
2021/03/10 07:52:04;;;;;;;2.58;2.25;;;17.20;37.20;;;;;;4800902;29;20229;-81
2021/03/10 07:54:38;;;;;;;2.15;1.80;;;17.20;37.20;;;;;;4812781;29;20210;-82
2021/03/10 07:57:23;;;;;;;2.35;2.13;;;17.20;37.00;;;;;;4813011;29;20191;-80
2021/03/10 08:00:00;;;;;;;2.25;2.03;;;17.20;36.90;;;;;;4824949;29;20284;-82
2021/03/10 08:02:28;;;;;;;2.30;2.10;;;17.20;36.70;;;;;;4852932;29;20169;-82
2021/03/10 08:05:02;;;;;;;1.90;1.77;;;17.30;36.70;;;;;;4854733;29;20311;-83
2021/03/10 08:07:32;;;;;;;2.38;2.00;;;17.30;36.70;;;;;;4852872;29;20197;-81
2021/03/10 08:09:59;;;;;;;2.10;1.90;;;17.30;36.70;;;;;;4868042;29;20192;-81
2021/03/10 08:12:51;;;;;;;2.20;2.00;;;17.30;36.70;;;;;;4869521;29;20162;-80
2021/03/10 08:15:22;;;;;;;2.15;1.95;;;17.20;36.80;;;;;;4849754;29;20526;-82
2021/03/10 08:18:02;;;;;;;2.55;2.10;;;17.20;36.70;;;;;;4851667;29;20220;-84
2021/03/10 08:20:41;;;;;;;2.30;2.10;;;17.20;36.50;;;;;;4868684;29;20176;-80
2021/03/10 08:23:09;;;;;;;2.47;2.03;;;17.30;36.40;;;;;;4869056;29;20197;-81
2021/03/10 08:25:36;;;;;;;2.55;2.08;;;17.30;36.60;;;;;;4852158;29;20211;-81
2021/03/10 08:28:13;;;;;;;2.70;2.10;;;17.20;36.50;;;;;;4852922;29;20165;-80
2021/03/10 08:30:39;;;;;;;2.17;1.92;;;17.20;36.40;;;;;;4869639;29;20193;-81
2021/03/10 08:33:07;;;;;;;2.53;2.10;;;17.30;36.20;;;;;;4869534;29;20208;-81
2021/03/10 08:35:33;;;;;;;2.47;2.00;;;17.30;36.30;;;;;;4867514;29;20161;-81
2021/03/10 08:38:04;;;;;;;2.55;2.10;;;17.40;36.10;;;;;;4852740;29;20161;-82
2021/03/10 08:40:32;;;;;;;2.25;1.90;;;17.30;36.40;;;;;;4834120;29;20172;-81
2021/03/10 08:43:00;;;;;;;2.80;2.15;;;17.30;36.20;;;;;;4848564;29;20252;-84
2021/03/10 08:45:34;;;;;;;2.38;2.10;;;17.40;36.10;;;;;;4819435;29;20661;-83
2021/03/10 08:48:02;;;;;;;2.80;2.10;;;17.50;36.00;;;;;;4833333;29;20203;-82
2021/03/10 08:50:37;;;;;;;2.45;2.22;;;17.50;35.80;;;;;;4817974;29;20197;-83
2021/03/10 08:53:06;;;;;;;2.50;2.13;;;17.50;35.70;;;;;;4849055;29;20645;-81
2021/03/10 08:55:31;;;;;;;2.15;1.95;;;17.40;36.00;;;;;;4865077;29;20260;-84
2021/03/10 08:58:07;;;;;;;2.60;2.10;;;17.50;36.00;;;;;;4837779;29;20184;-80
2021/03/10 09:00:33;;;;;;;2.33;2.10;;;17.40;35.90;;;;;;4857526;29;20221;-80
2021/03/10 09:03:20;;;;;;;2.10;1.90;;;17.40;36.00;;;;;;4872641;29;20629;-80
2021/03/10 09:05:47;;;;;;;2.15;1.95;;;17.50;35.80;;;;;;4855503;29;20231;-80
2021/03/10 09:08:13;;;;;;;2.40;2.20;;;17.50;35.60;;;;;;4839610;29;20164;-81
2021/03/10 09:10:49;;;;;;;2.55;1.90;;;17.50;35.80;;;;;;4839518;29;20196;-82
2021/03/10 09:13:18;;;;;;;2.38;2.17;;;17.50;35.80;;;;;;4853257;29;20631;-82
2021/03/10 09:15:43;;;;;;;2.25;2.05;;;17.50;35.50;;;;;;4836794;29;20161;-80
2021/03/10 09:18:09;;;;;;;2.47;2.17;;;17.50;35.60;;;;;;4850794;29;20179;-82
2021/03/10 09:20:40;;;;;;;2.35;2.10;;;17.50;35.50;;;;;;4855290;29;20169;-81
2021/03/10 09:23:06;;;;;;;2.22;2.00;;;17.50;35.70;;;;;;4857491;29;20176;-81
2021/03/10 09:25:36;;;;;;;2.35;1.90;;;17.50;35.60;;;;;;4856132;29;20195;-80
2021/03/10 09:28:14;;;;;;;3.35;2.08;;;17.50;35.40;;;;;;4839036;29;20235;-80
2021/03/10 09:30:45;;;;;;;2.63;2.20;;;17.50;35.50;;;;;;4840383;29;20200;-80
2021/03/10 09:33:24;;;;;;;2.40;2.20;;;17.50;35.30;;;;;;4824730;29;20264;-81
2021/03/10 09:35:59;;;;;;;2.25;2.05;;;17.50;35.50;;;;;;4822992;29;20173;-81
2021/03/10 09:38:29;;;;;;;3.35;2.15;;;17.40;35.40;;;;;;4834366;29;20160;-81
2021/03/10 09:40:59;;;;;;;2.15;1.95;;;17.50;35.50;;;;;;4837134;29;20165;-81
2021/03/10 09:43:31;;;;;;;2.30;2.00;;;17.50;35.30;;;;;;4839925;29;20617;-82
2021/03/10 09:46:04;;;;;;;2.45;2.10;;;17.50;35.40;;;;;;4848127;29;20177;-81
2021/03/10 09:48:38;;;;;;;2.40;2.20;;;17.50;35.40;;;;;;4832358;29;20603;-81
2021/03/10 09:51:19;;;;;;;2.58;2.20;;;17.50;35.40;;;;;;4824468;29;20220;-81
2021/03/10 09:53:51;;;;;;;1.98;1.77;;;17.50;35.20;;;;;;4840432;29;20161;-81
2021/03/10 09:56:18;;;;;;;2.58;2.20;;;17.50;35.00;;;;;;4835359;29;20213;-80
2021/03/10 09:59:00;;;;;;;2.13;1.92;;;17.50;35.10;;;;;;4839749;29;20169;-80
2021/03/10 10:01:27;;;;;;;2.45;2.15;;;17.50;35.00;;;;;;4822258;29;20180;-84
2021/03/10 10:03:53;;;;;;;2.28;2.00;;;17.50;34.90;;;;;;4834620;29;20210;-80
2021/03/10 10:06:20;;;;;;;2.10;1.90;;;17.50;35.10;;;;;;4826641;29;20213;-82
2021/03/10 10:08:46;;;;;;;2.47;2.10;;;17.50;35.10;;;;;;4822820;29;20200;-80
2021/03/10 10:11:18;;;;;;;2.53;2.10;;;17.50;35.10;;;;;;4819091;29;20287;-81
2021/03/10 10:13:44;;;;;;;2.15;1.90;;;17.50;34.80;;;;;;4866003;29;20172;-80
2021/03/10 10:16:10;;;;;;;2.25;2.00;;;17.50;35.10;;;;;;4834218;29;20276;-81
2021/03/10 10:18:38;;;;;;;2.13;1.85;;;17.50;35.00;;;;;;4832846;29;20181;-84
2021/03/10 10:21:04;;;;;;;2.13;1.92;;;17.50;35.00;;;;;;4848499;29;20184;-80
2021/03/10 10:23:30;;;;;;;2.45;2.08;;;17.50;34.80;;;;;;4832514;29;20168;-83
2021/03/10 10:25:57;;;;;;;2.33;2.10;;;17.50;34.90;;;;;;4815984;29;20180;-81
2021/03/10 10:28:24;;;;;;;2.70;2.15;;;17.50;34.90;;;;;;4831702;29;20529;-80
2021/03/10 10:30:51;;;;;;;2.38;1.92;;;17.50;34.80;;;;;;4836716;29;20216;-81
2021/03/10 10:33:18;;;;;;;2.10;1.90;;;17.50;34.90;;;;;;4837677;29;20617;-83
2021/03/10 10:35:44;;;;;;;2.05;1.80;;;17.40;35.00;;;;;;4837202;29;20179;-82
2021/03/10 10:38:09;;;;;;;2.28;2.08;;;17.40;34.70;;;;;;4836843;29;20192;-81
2021/03/10 10:40:35;;;;;;;2.22;2.03;;;17.40;34.90;;;;;;4831536;29;20199;-82
2021/03/10 10:43:09;;;;;;;2.30;2.10;;;17.50;34.70;;;;;;4835621;29;20192;-82
2021/03/10 10:45:38;;;;;;;2.47;1.90;;;17.50;34.50;;;;;;4835757;29;20244;-82
2021/03/10 10:48:07;;;;;;;2.83;1.90;;;17.60;34.50;;;;;;4850529;29;20187;-82
2021/03/10 10:50:53;;;;;;;2.40;1.98;;;17.50;34.40;;;;;;4850581;29;20188;-82
2021/03/10 10:53:22;;;;;;;2.22;2.00;;;17.50;34.50;;;;;;4847411;29;20188;-82
2021/03/10 10:55:51;;;;;;;3.53;2.10;;;17.50;34.40;;;;;;4846813;29;20208;-83
2021/03/10 10:58:18;;;;;;;2.97;2.10;;;17.50;34.50;;;;;;4861386;29;20186;-82
2021/03/10 11:00:44;;;;;;;2.40;1.92;;;17.50;34.30;;;;;;4831901;29;20207;-81
2021/03/10 11:03:14;;;;;;;2.05;1.80;;;17.60;34.30;;;;;;4863493;29;20161;-82
2021/03/10 11:05:46;;;;;;;2.25;2.05;;;17.60;34.40;;;;;;4830996;29;20208;-82
2021/03/10 11:08:12;;;;;;;2.40;2.20;;;17.60;34.40;;;;;;4845044;29;20689;-83
2021/03/10 11:10:38;;;;;;;2.72;2.08;;;17.60;34.20;;;;;;4843515;29;20204;-82
2021/03/10 11:13:18;;;;;;;2.40;2.20;;;17.50;34.30;;;;;;4829770;29;20244;-83
2021/03/10 11:20:07;;;;;;;2.20;2.00;;;17.60;34.30;;;;;;4882784;29;20267;-87
2021/03/10 11:22:59;;;;;;;2.30;2.10;;;17.50;34.30;;;;;;4861589;29;20176;-85
2021/03/10 11:25:28;;;;;;;2.00;1.80;;;17.50;34.40;;;;;;4849406;29;20270;-85
2021/03/10 11:27:56;;;;;;;2.83;2.47;;;17.50;34.30;;;;;;4861870;29;20155;-83
2021/03/10 11:30:24;;;;;;;4.03;2.17;;;17.50;34.40;;;;;;4859217;29;20189;-85
2021/03/10 11:32:54;;;;;;;2.35;2.15;;;17.50;34.20;;;;;;4856496;29;20190;-83
2021/03/10 11:35:33;;;;;;;2.50;1.77;;;17.60;34.00;;;;;;4838932;29;20180;-85
2021/03/10 11:38:00;;;;;;;2.90;2.25;;;17.50;34.00;;;;;;4838604;29;20184;-84
2021/03/10 11:40:26;;;;;;;2.13;1.92;;;17.50;34.10;;;;;;4851796;29;20169;-83
2021/03/10 11:42:59;;;;;;;2.40;2.20;;;17.50;34.00;;;;;;4842963;29;20287;-83
2021/03/10 11:45:29;;;;;;;2.55;2.10;;;17.50;33.90;;;;;;4844424;29;20184;-82
2021/03/10 13:26:12;;;;;;;2.35;1.90;;;17.60;33.30;;;;;;4888346;23;20236;-83
2021/03/10 13:28:38;;;;;;;2.78;1.88;;;17.60;33.20;;;;;;4842386;29;20236;-83
2021/03/10 13:31:07;;;;;;;2.15;1.95;;;17.60;33.00;;;;;;4841628;29;20196;-83
2021/03/10 13:33:38;;;;;;;2.72;2.20;;;17.60;33.10;;;;;;4842348;29;20220;-83
2021/03/10 13:36:12;;;;;;;2.10;1.90;;;17.60;33.00;;;;;;4843889;29;20173;-83
2021/03/10 13:38:41;;;;;;;1.73;1.63;;;17.60;33.00;;;;;;4857062;29;20166;-83
2021/03/10 13:41:08;;;;;;;2.10;1.90;;;17.60;32.90;;;;;;4841138;29;20177;-83
2021/03/10 13:43:36;;;;;;;3.35;1.95;;;17.60;32.90;;;;;;4854511;29;20168;-83
2021/03/10 13:46:02;;;;;;;1.88;1.70;;;17.60;32.90;;;;;;4842129;29;20173;-84
2021/03/10 13:48:33;;;;;;;3.03;2.00;;;17.60;32.90;;;;;;4840644;29;20173;-85
2021/03/10 13:51:26;;;;;;;4.15;1.85;;;17.60;32.90;;;;;;4844509;29;20209;-84
2021/03/10 13:53:52;;;;;;;3.65;2.00;;;17.60;32.90;;;;;;4853876;29;20176;-81
2021/03/10 13:56:21;;;;;;;4.90;2.10;;;17.60;32.90;;;;;;4837763;29;20178;-80
2021/03/10 13:58:51;;;;;;;6.88;1.95;;;17.60;32.70;;;;;;4853817;29;20174;-81
2021/03/10 14:01:17;;;;;;;2.50;1.88;;;17.70;32.80;;;;;;4854236;29;20186;-82
2021/03/10 14:03:43;;;;;;;3.55;1.77;;;17.70;32.80;;;;;;4838784;29;20166;-79
2021/03/10 14:06:10;;;;;;;3.70;2.00;;;17.60;32.70;;;;;;4837048;29;20173;-81
2021/03/10 14:08:36;;;;;;;5.50;2.10;;;17.60;32.80;;;;;;4838994;29;20170;-81
2021/03/10 14:11:02;;;;;;;8.50;2.10;;;17.70;32.70;;;;;;4823143;29;20197;-79
2021/03/10 14:13:28;;;;;;;6.15;1.77;;;17.70;32.80;;;;;;4853570;29;20181;-80
2021/03/10 14:16:00;;;;;;;5.82;2.00;;;17.60;32.60;;;;;;4836132;29;20203;-80
2021/03/10 14:18:28;;;;;;;2.45;1.95;;;17.60;32.80;;;;;;4826067;29;20169;-80
2021/03/10 14:20:55;;;;;;;4.53;1.85;;;17.60;32.70;;;;;;4823140;29;20180;-80
2021/03/10 14:23:22;;;;;;;3.60;2.05;;;17.60;32.60;;;;;;4823226;29;20169;-80
2021/03/10 14:25:48;;;;;;;8.95;2.20;;;17.60;32.80;;;;;;4853147;29;20281;-79
2021/03/10 14:28:15;;;;;;;7.97;2.22;;;17.60;32.70;;;;;;4838359;29;20188;-80
2021/03/10 14:30:44;;;;;;;5.95;2.22;;;17.60;32.80;;;;;;4851214;29;20677;-80
2021/03/10 14:33:15;;;;;;;6.07;1.90;;;17.60;32.70;;;;;;4805443;29;20181;-80
2021/03/10 14:35:40;;;;;;;3.97;1.92;;;17.60;32.90;;;;;;4817078;29;20205;-80
2021/03/10 14:38:09;;;;;;;4.72;2.10;;;17.60;32.80;;;;;;4854319;29;20193;-83
2021/03/10 14:40:37;;;;;;;6.20;2.10;;;17.60;32.90;;;;;;4820752;29;20184;-81
2021/03/10 14:43:06;;;;;;;5.13;2.00;;;17.70;32.70;;;;;;4852966;29;20205;-81